Time;durP1;ratioP1;P1;durP2;ratioP2;P2;SDS_P1;SDS_P2;PMS_P1;PMS_P2;Temp;Humidity;BMP_temperature;BMP_pressure;BME280_temperature;BME280_humidity;BME280_pressure;Samples;Min_cycle;Max_cycle;Signal;HPM_P1;HPM_P2
2022/10/23 00:01:15;;;;;;;16.70;11.60;;;8.50;99.90;;;;;;5114984;28;20261;-75
2022/10/23 00:03:41;;;;;;;20.80;11.80;;;8.50;99.90;;;;;;5105034;28;20254;-75
2022/10/23 00:06:10;;;;;;;17.07;11.43;;;8.50;99.90;;;;;;5094326;28;20249;-75
2022/10/23 00:08:38;;;;;;;17.23;11.97;;;8.50;99.90;;;;;;5094377;28;20192;-75
2022/10/23 00:11:07;;;;;;;15.23;11.43;;;8.50;99.90;;;;;;5094028;28;20629;-75
2022/10/23 00:13:33;;;;;;;16.97;11.13;;;8.50;99.90;;;;;;5094386;28;20200;-75
2022/10/23 00:16:00;;;;;;;13.23;11.60;;;8.50;99.90;;;;;;5094228;28;20258;-75
2022/10/23 00:18:27;;;;;;;15.80;11.93;;;8.50;99.90;;;;;;5094224;28;20204;-75
2022/10/23 00:20:53;;;;;;;19.13;12.47;;;8.60;99.90;;;;;;5094088;28;20259;-75
2022/10/23 00:23:21;;;;;;;14.33;11.37;;;8.60;99.90;;;;;;5093913;28;20257;-75
2022/10/23 00:25:48;;;;;;;20.07;12.67;;;8.60;99.90;;;;;;5093793;28;20200;-75
2022/10/23 00:28:14;;;;;;;21.13;12.37;;;8.60;99.90;;;;;;5094030;28;20204;-75
2022/10/23 00:30:41;;;;;;;17.10;12.67;;;8.60;99.90;;;;;;5093887;28;20277;-75
2022/10/23 00:33:09;;;;;;;19.27;12.83;;;8.50;99.90;;;;;;5093663;28;20602;-75
2022/10/23 00:35:38;;;;;;;30.00;13.77;;;8.50;99.90;;;;;;5093637;28;20651;-75
2022/10/23 00:38:05;;;;;;;24.10;15.50;;;8.50;99.90;;;;;;5093608;28;20196;-75
2022/10/23 00:40:33;;;;;;;20.73;13.73;;;8.40;99.90;;;;;;5093481;28;20239;-75
2022/10/23 00:43:00;;;;;;;22.23;14.13;;;8.40;99.90;;;;;;5093798;28;20197;-76
2022/10/23 00:45:30;;;;;;;19.60;13.83;;;8.40;99.90;;;;;;5093721;28;20262;-75
2022/10/23 00:47:57;;;;;;;18.57;12.80;;;8.40;99.90;;;;;;5104443;28;20550;-75
2022/10/23 00:50:26;;;;;;;17.43;13.07;;;8.40;99.90;;;;;;5113645;28;20222;-75
2022/10/23 00:52:54;;;;;;;15.20;12.27;;;8.50;99.90;;;;;;5113603;28;20536;-75
2022/10/23 00:55:23;;;;;;;22.90;13.17;;;8.40;99.90;;;;;;5113845;28;20210;-75
2022/10/23 00:57:52;;;;;;;16.50;13.07;;;8.40;99.90;;;;;;5113834;28;20196;-75
2022/10/23 01:00:22;;;;;;;20.73;13.47;;;8.40;99.90;;;;;;5093421;28;20245;-75
2022/10/23 01:02:49;;;;;;;18.00;13.73;;;8.50;99.90;;;;;;5093227;28;20656;-74
2022/10/23 01:05:16;;;;;;;21.40;14.17;;;8.50;99.90;;;;;;5092861;28;20674;-75
2022/10/23 01:07:54;;;;;;;27.27;17.53;;;8.50;99.90;;;;;;5093437;28;20260;-75
2022/10/23 01:10:28;;;;;;;23.40;14.90;;;8.50;99.90;;;;;;5093155;28;20220;-75
2022/10/23 01:13:03;;;;;;;21.80;14.00;;;8.50;99.90;;;;;;5093244;28;20199;-75
2022/10/23 01:15:36;;;;;;;21.00;13.70;;;8.50;99.90;;;;;;5096892;28;20187;-75
2022/10/23 01:18:12;;;;;;;21.10;14.40;;;8.50;99.90;;;;;;5113553;28;20199;-75
2022/10/23 01:20:42;;;;;;;18.53;13.20;;;8.40;99.90;;;;;;5113674;28;20195;-75
2022/10/23 01:23:39;;;;;;;22.47;14.87;;;8.40;99.90;;;;;;5113179;28;20582;-75
2022/10/23 01:26:18;;;;;;;20.77;14.23;;;8.30;99.90;;;;;;5113278;28;20244;-75
2022/10/23 01:28:50;;;;;;;23.13;14.67;;;8.30;99.90;;;;;;5113504;28;20199;-75
2022/10/23 01:31:22;;;;;;;18.03;13.83;;;8.30;99.90;;;;;;5113310;28;20223;-75
2022/10/23 01:33:55;;;;;;;21.40;13.83;;;8.30;99.90;;;;;;5113298;28;20256;-75
2022/10/23 01:36:26;;;;;;;20.37;13.63;;;8.30;99.90;;;;;;5113108;28;20206;-75
2022/10/23 01:38:58;;;;;;;19.23;13.30;;;8.20;99.90;;;;;;5113276;28;20228;-75
2022/10/23 01:41:29;;;;;;;17.50;13.10;;;8.20;99.90;;;;;;5113247;28;20252;-75
2022/10/23 01:44:03;;;;;;;19.43;13.33;;;8.10;99.90;;;;;;5113014;28;20582;-75
2022/10/23 01:46:31;;;;;;;20.33;13.13;;;8.00;99.90;;;;;;5113129;28;20348;-76
2022/10/23 01:49:02;;;;;;;20.20;13.67;;;8.10;99.90;;;;;;5112943;28;20608;-75
2022/10/23 01:51:31;;;;;;;16.53;13.27;;;8.10;99.90;;;;;;5112831;28;20873;-75
2022/10/23 01:54:00;;;;;;;18.77;12.10;;;8.10;99.90;;;;;;5113124;28;20203;-75
2022/10/23 01:56:32;;;;;;;14.57;12.17;;;8.00;99.90;;;;;;5113042;28;20204;-75
2022/10/23 01:59:04;;;;;;;20.73;11.30;;;8.00;99.90;;;;;;5112440;28;20225;-76
2022/10/23 02:01:34;;;;;;;15.70;10.20;;;8.10;99.90;;;;;;5112963;28;20256;-75
2022/10/23 02:04:03;;;;;;;14.07;10.83;;;8.00;99.90;;;;;;5113037;28;20244;-75
2022/10/23 02:06:29;;;;;;;16.53;10.73;;;8.00;99.90;;;;;;5113050;28;20199;-75
2022/10/23 02:08:56;;;;;;;17.00;11.80;;;7.90;99.90;;;;;;5112920;28;20224;-75
2022/10/23 02:11:23;;;;;;;15.47;11.47;;;7.90;99.90;;;;;;5112835;28;20222;-76
2022/10/23 02:13:56;;;;;;;17.17;12.20;;;8.00;99.90;;;;;;5112885;28;20196;-75
2022/10/23 02:16:30;;;;;;;19.07;12.33;;;8.00;99.90;;;;;;5113561;28;20192;-76
2022/10/23 02:19:10;;;;;;;21.27;13.60;;;7.90;99.90;;;;;;5116904;28;20198;-75
2022/10/23 02:21:47;;;;;;;20.00;13.50;;;7.80;99.90;;;;;;5116831;28;20221;-75
2022/10/23 02:24:17;;;;;;;22.43;12.60;;;7.80;99.90;;;;;;5116620;28;20719;-75
2022/10/23 02:26:51;;;;;;;17.60;11.17;;;7.70;99.90;;;;;;5116622;28;20205;-75
2022/10/23 02:29:23;;;;;;;16.17;11.10;;;7.60;99.90;;;;;;5116777;28;20200;-76
2022/10/23 02:31:51;;;;;;;15.33;11.30;;;7.70;99.90;;;;;;5116479;28;20273;-76
2022/10/23 02:34:18;;;;;;;17.03;11.23;;;7.60;99.90;;;;;;5116509;28;20226;-76
2022/10/23 02:36:45;;;;;;;27.07;14.00;;;7.60;99.90;;;;;;5116472;28;20203;-75
2022/10/23 02:39:11;;;;;;;22.50;12.87;;;7.60;99.90;;;;;;5116377;28;20227;-76
2022/10/23 02:41:43;;;;;;;21.60;12.63;;;7.50;99.90;;;;;;5116582;28;20552;-75
2022/10/23 02:44:25;;;;;;;23.47;13.03;;;7.40;99.90;;;;;;5116295;28;20229;-75
2022/10/23 02:47:02;;;;;;;26.77;13.60;;;7.30;99.90;;;;;;5116333;28;20198;-75
2022/10/23 02:49:37;;;;;;;30.33;15.03;;;7.40;99.90;;;;;;5116126;28;20276;-75
2022/10/23 02:52:11;;;;;;;32.30;14.30;;;7.40;99.90;;;;;;5116240;28;20257;-75
2022/10/23 02:55:01;;;;;;;26.30;14.13;;;7.50;99.90;;;;;;5115987;28;20531;-75
2022/10/23 02:57:33;;;;;;;29.00;14.77;;;7.50;99.90;;;;;;5116105;28;20272;-75
2022/10/23 03:00:10;;;;;;;33.43;16.30;;;7.40;99.90;;;;;;5115913;28;20194;-75
2022/10/23 03:02:41;;;;;;;31.63;15.37;;;7.40;99.90;;;;;;5116018;28;20200;-75
2022/10/23 03:05:11;;;;;;;26.70;13.90;;;7.40;99.90;;;;;;5115935;28;20192;-74
2022/10/23 03:07:40;;;;;;;24.17;13.17;;;7.40;99.90;;;;;;5115858;28;20198;-75
2022/10/23 03:10:09;;;;;;;28.17;14.13;;;7.40;99.90;;;;;;5115667;28;20226;-75
2022/10/23 03:12:35;;;;;;;26.93;13.17;;;7.40;99.90;;;;;;5115809;28;20276;-75
2022/10/23 03:15:02;;;;;;;26.77;13.17;;;7.40;99.90;;;;;;5115863;28;20247;-75
2022/10/23 03:17:29;;;;;;;20.73;11.77;;;7.40;99.90;;;;;;5115774;28;20199;-75
2022/10/23 03:19:57;;;;;;;18.57;12.17;;;7.30;99.90;;;;;;5115673;28;20275;-75
2022/10/23 03:22:23;;;;;;;19.40;11.60;;;7.20;99.90;;;;;;5115540;28;20264;-75
2022/10/23 03:24:50;;;;;;;18.57;10.80;;;7.20;99.90;;;;;;5115444;28;20200;-75
2022/10/23 03:27:17;;;;;;;14.07;9.77;;;7.30;99.90;;;;;;5115388;28;20195;-75
2022/10/23 03:29:43;;;;;;;18.23;11.13;;;7.30;99.90;;;;;;5115557;28;20203;-75
2022/10/23 03:32:10;;;;;;;15.90;11.00;;;7.40;99.90;;;;;;5115468;28;20620;-74
2022/10/23 03:34:36;;;;;;;33.43;13.87;;;7.40;99.90;;;;;;5115419;28;20243;-75
2022/10/23 03:37:04;;;;;;;34.90;14.17;;;7.40;99.90;;;;;;5115225;28;20195;-75
2022/10/23 03:39:31;;;;;;;29.57;13.60;;;7.50;99.90;;;;;;5114905;28;20272;-74
2022/10/23 03:41:58;;;;;;;20.77;11.77;;;7.40;99.90;;;;;;5115281;28;20200;-74
2022/10/23 03:44:24;;;;;;;24.27;13.50;;;7.40;99.90;;;;;;5115278;28;20199;-75
2022/10/23 03:46:51;;;;;;;20.90;12.40;;;7.30;99.90;;;;;;5115160;28;20261;-74
2022/10/23 03:49:18;;;;;;;20.80;12.97;;;7.30;99.90;;;;;;5115011;28;20204;-75
2022/10/23 03:51:50;;;;;;;20.00;11.70;;;7.40;99.90;;;;;;5114792;28;20277;-73
2022/10/23 03:54:19;;;;;;;20.20;12.00;;;7.30;99.90;;;;;;5115194;28;20286;-74
2022/10/23 03:56:46;;;;;;;20.93;11.27;;;7.30;99.90;;;;;;5114927;28;20249;-74
2022/10/23 03:59:12;;;;;;;16.27;11.93;;;7.30;99.90;;;;;;5114868;28;20200;-74
2022/10/23 04:01:39;;;;;;;20.63;13.30;;;7.30;99.90;;;;;;5114824;28;20244;-74
2022/10/23 04:04:06;;;;;;;22.43;13.43;;;7.20;99.90;;;;;;5114780;28;20228;-74
2022/10/23 04:06:32;;;;;;;25.17;13.50;;;7.20;99.90;;;;;;5114605;28;20624;-74
2022/10/23 04:08:59;;;;;;;19.77;13.50;;;7.20;99.90;;;;;;5114788;28;20195;-74
2022/10/23 04:11:27;;;;;;;22.27;13.80;;;7.20;99.90;;;;;;5114409;28;20700;-74
2022/10/23 04:13:54;;;;;;;25.50;14.80;;;7.10;99.90;;;;;;5114631;28;20206;-74
2022/10/23 04:16:20;;;;;;;40.30;16.10;;;7.20;99.90;;;;;;5114618;28;20255;-74
2022/10/23 04:18:47;;;;;;;27.03;14.50;;;7.20;99.90;;;;;;5114452;28;20202;-74
2022/10/23 04:21:14;;;;;;;21.33;12.57;;;7.30;99.90;;;;;;5114313;28;20195;-74
2022/10/23 04:23:41;;;;;;;25.23;13.80;;;7.30;99.90;;;;;;5114546;28;20195;-74
2022/10/23 04:26:07;;;;;;;27.47;13.90;;;7.30;99.90;;;;;;5114386;28;20200;-74
2022/10/23 04:28:35;;;;;;;27.60;15.27;;;7.20;99.90;;;;;;5114272;28;20245;-74
2022/10/23 04:31:02;;;;;;;30.50;16.47;;;7.30;99.90;;;;;;5114115;28;20248;-74
2022/10/23 04:33:28;;;;;;;31.13;16.57;;;7.20;99.90;;;;;;5114064;28;20199;-74
2022/10/23 04:35:55;;;;;;;24.87;14.07;;;7.10;99.90;;;;;;5114290;28;20195;-74
2022/10/23 04:38:22;;;;;;;21.17;13.47;;;7.20;99.90;;;;;;5113964;28;20221;-73
2022/10/23 04:40:48;;;;;;;19.73;12.93;;;7.20;99.90;;;;;;5113563;28;20252;-74
2022/10/23 04:43:15;;;;;;;20.17;12.30;;;7.10;99.90;;;;;;5113955;28;20211;-75
2022/10/23 04:45:43;;;;;;;20.43;12.40;;;7.10;99.90;;;;;;5113732;28;20716;-74
2022/10/23 04:48:09;;;;;;;16.60;11.27;;;7.10;99.90;;;;;;5113726;28;20192;-74
2022/10/23 04:50:36;;;;;;;16.97;11.43;;;7.10;99.90;;;;;;5113952;28;20196;-74
2022/10/23 04:53:03;;;;;;;16.00;11.90;;;7.10;99.90;;;;;;5113825;28;20220;-74
2022/10/23 04:55:29;;;;;;;15.23;11.30;;;7.20;99.90;;;;;;5113851;28;20196;-74
2022/10/23 04:57:56;;;;;;;17.03;11.73;;;7.10;99.90;;;;;;5112784;28;20199;-74
2022/10/23 05:00:23;;;;;;;14.27;11.07;;;7.00;99.90;;;;;;5104740;28;20191;-74
2022/10/23 05:02:52;;;;;;;15.57;10.50;;;7.00;99.90;;;;;;5113532;28;20655;-74
2022/10/23 05:05:18;;;;;;;17.10;11.63;;;7.10;99.90;;;;;;5113764;28;20220;-74
2022/10/23 05:07:45;;;;;;;17.73;12.00;;;7.10;99.90;;;;;;5113665;28;20340;-74
2022/10/23 05:10:11;;;;;;;18.93;11.00;;;7.10;99.90;;;;;;5103933;28;20188;-74
2022/10/23 05:12:38;;;;;;;18.37;10.77;;;7.00;99.90;;;;;;5093052;28;20224;-75
2022/10/23 05:15:06;;;;;;;15.23;10.37;;;6.90;99.90;;;;;;5093090;28;20207;-74
2022/10/23 05:17:35;;;;;;;17.90;10.90;;;6.80;99.90;;;;;;5092992;28;20208;-75
2022/10/23 05:20:07;;;;;;;16.20;10.77;;;6.90;99.90;;;;;;5092948;28;20656;-75
2022/10/23 05:22:36;;;;;;;17.30;10.27;;;6.80;99.90;;;;;;5092976;28;20651;-75
2022/10/23 05:25:04;;;;;;;15.33;10.13;;;6.90;99.90;;;;;;5092937;28;20200;-74
2022/10/23 05:27:31;;;;;;;13.20;10.13;;;6.90;99.90;;;;;;5092936;28;20201;-74
2022/10/23 05:29:58;;;;;;;13.90;9.93;;;6.90;99.90;;;;;;5106577;28;20203;-74
2022/10/23 05:32:27;;;;;;;15.60;9.33;;;6.70;99.90;;;;;;5113224;28;20219;-74
2022/10/23 05:34:55;;;;;;;12.93;9.97;;;6.80;99.90;;;;;;5112967;28;20529;-75
2022/10/23 05:37:23;;;;;;;14.80;10.03;;;6.80;99.90;;;;;;5113042;28;20582;-74
2022/10/23 05:39:50;;;;;;;12.63;9.97;;;6.90;99.90;;;;;;5112970;28;20284;-74
2022/10/23 05:42:16;;;;;;;15.80;9.70;;;6.90;99.90;;;;;;5113044;28;20204;-74
2022/10/23 05:44:43;;;;;;;11.67;10.20;;;6.90;99.90;;;;;;5113192;28;20240;-74
2022/10/23 05:47:10;;;;;;;13.87;10.13;;;6.90;99.90;;;;;;5113198;28;20203;-75
2022/10/23 05:49:36;;;;;;;14.73;10.33;;;6.90;99.90;;;;;;5113146;28;20264;-75
2022/10/23 05:52:03;;;;;;;13.80;10.23;;;6.90;99.90;;;;;;5101140;28;20232;-75
2022/10/23 05:54:31;;;;;;;12.70;10.50;;;6.80;99.90;;;;;;5117185;28;20252;-74
2022/10/23 05:56:57;;;;;;;13.17;9.60;;;6.90;99.90;;;;;;5117136;28;20195;-74
2022/10/23 05:59:24;;;;;;;15.20;10.53;;;6.90;99.90;;;;;;5117070;28;20264;-74
2022/10/23 06:01:51;;;;;;;14.93;10.37;;;6.90;99.90;;;;;;5117229;28;20204;-74
2022/10/23 06:04:17;;;;;;;14.60;11.03;;;6.90;99.90;;;;;;5117153;28;20229;-74
2022/10/23 06:06:45;;;;;;;11.77;10.57;;;7.00;99.90;;;;;;5116893;28;20199;-74
2022/10/23 06:09:12;;;;;;;12.90;10.60;;;7.10;99.90;;;;;;5116964;28;20245;-74
2022/10/23 06:11:40;;;;;;;12.83;9.97;;;7.20;99.90;;;;;;5116832;28;20196;-74
2022/10/23 06:14:07;;;;;;;14.80;11.00;;;7.20;99.90;;;;;;5117092;28;20228;-74
2022/10/23 06:16:34;;;;;;;14.17;11.30;;;7.30;99.90;;;;;;5116935;28;20191;-75
2022/10/23 06:19:00;;;;;;;13.90;12.20;;;7.40;99.90;;;;;;5116887;28;20252;-74
2022/10/23 06:21:27;;;;;;;14.50;12.03;;;7.40;99.90;;;;;;5116784;28;20207;-74
2022/10/23 06:23:55;;;;;;;17.57;12.73;;;7.50;99.90;;;;;;5116598;28;20253;-74
2022/10/23 06:26:21;;;;;;;17.33;11.87;;;7.60;99.90;;;;;;5116566;28;20263;-74
2022/10/23 06:28:49;;;;;;;14.03;12.07;;;7.70;99.90;;;;;;5116689;28;20275;-74
2022/10/23 06:31:18;;;;;;;15.37;12.23;;;7.80;99.90;;;;;;5116529;28;20195;-74
2022/10/23 06:33:44;;;;;;;14.70;12.47;;;7.90;99.90;;;;;;5117387;28;20227;-74
2022/10/23 06:36:11;;;;;;;13.93;12.43;;;8.00;99.90;;;;;;5116415;28;20608;-75
2022/10/23 06:38:39;;;;;;;13.57;12.17;;;8.10;99.90;;;;;;5116097;28;20199;-75
2022/10/23 06:41:07;;;;;;;13.57;12.13;;;8.20;99.90;;;;;;5116603;28;20222;-74
2022/10/23 06:43:34;;;;;;;16.87;12.77;;;8.30;99.90;;;;;;5116421;28;20317;-75
2022/10/23 06:46:03;;;;;;;14.23;11.73;;;8.40;99.90;;;;;;5116211;28;20198;-74
2022/10/23 06:48:30;;;;;;;13.73;12.23;;;8.40;99.90;;;;;;5116032;28;20673;-74
2022/10/23 06:50:57;;;;;;;13.43;12.13;;;8.50;99.90;;;;;;5116139;28;20742;-75
2022/10/23 06:53:24;;;;;;;14.83;12.70;;;8.60;99.90;;;;;;5116273;28;20224;-74
2022/10/23 06:55:51;;;;;;;15.63;11.97;;;8.80;99.90;;;;;;5116265;28;20361;-75
2022/10/23 06:58:18;;;;;;;17.70;12.30;;;8.90;99.90;;;;;;5116042;28;20203;-75
2022/10/23 07:00:45;;;;;;;13.57;11.87;;;8.90;99.90;;;;;;5115941;28;20242;-74
2022/10/23 07:03:13;;;;;;;17.00;11.83;;;9.00;99.90;;;;;;5115277;28;20248;-75
2022/10/23 07:05:39;;;;;;;13.60;11.27;;;9.10;99.90;;;;;;5115681;28;20200;-75
2022/10/23 07:08:06;;;;;;;13.70;12.10;;;9.20;99.90;;;;;;5115986;28;20204;-76
2022/10/23 07:10:34;;;;;;;12.53;11.13;;;9.30;99.90;;;;;;5105852;28;20586;-75
2022/10/23 07:13:02;;;;;;;11.47;10.27;;;9.40;99.90;;;;;;5113255;28;20708;-75
2022/10/23 07:15:29;;;;;;;10.97;9.40;;;9.60;99.90;;;;;;5112606;28;20200;-75
2022/10/23 07:17:56;;;;;;;10.63;9.63;;;9.70;99.90;;;;;;5113128;28;20191;-75
2022/10/23 07:20:24;;;;;;;11.57;9.77;;;9.90;99.90;;;;;;5112031;28;20203;-75
2022/10/23 07:22:52;;;;;;;10.80;9.70;;;10.00;99.90;;;;;;5099928;28;20200;-75
2022/10/23 07:25:18;;;;;;;10.10;9.10;;;10.20;99.90;;;;;;5099474;28;20227;-75
2022/10/23 07:27:45;;;;;;;9.83;8.53;;;10.50;99.90;;;;;;5115247;28;20249;-75
2022/10/23 07:30:13;;;;;;;11.57;9.27;;;10.70;99.90;;;;;;5115289;28;20207;-75
2022/10/23 07:32:39;;;;;;;9.40;8.50;;;10.80;99.90;;;;;;5115160;27;20660;-75
2022/10/23 07:35:07;;;;;;;9.20;8.30;;;11.00;99.90;;;;;;5115404;28;20200;-76
2022/10/23 07:37:36;;;;;;;10.27;8.70;;;11.20;99.90;;;;;;5116614;28;20195;-76
2022/10/23 07:40:03;;;;;;;11.50;8.80;;;11.30;99.90;;;;;;5114890;28;20698;-74
2022/10/23 07:42:29;;;;;;;9.23;8.23;;;11.60;99.90;;;;;;5115100;28;20203;-75
2022/10/23 07:44:56;;;;;;;8.47;7.60;;;11.70;99.90;;;;;;5108298;28;20200;-78
2022/10/23 07:47:23;;;;;;;8.40;7.30;;;11.90;99.90;;;;;;5094478;28;20196;-78
2022/10/23 07:49:50;;;;;;;9.13;7.43;;;12.00;99.90;;;;;;5094673;28;20201;-76
2022/10/23 07:52:17;;;;;;;7.27;6.53;;;12.20;99.90;;;;;;5094515;28;20200;-76
2022/10/23 07:54:45;;;;;;;7.30;6.60;;;12.30;99.90;;;;;;5094404;28;20200;-76
2022/10/23 07:57:12;;;;;;;7.03;6.33;;;12.40;99.90;;;;;;5094411;28;20226;-76
2022/10/23 07:59:39;;;;;;;6.53;5.47;;;12.50;99.90;;;;;;5094273;28;20204;-75
2022/10/23 08:02:10;;;;;;;7.40;5.90;;;12.40;99.90;;;;;;5094280;28;20717;-74
2022/10/23 08:04:37;;;;;;;8.20;5.90;;;12.40;99.90;;;;;;5094573;28;20196;-87
2022/10/23 08:07:04;;;;;;;7.20;5.37;;;12.50;99.90;;;;;;5094296;28;20197;-75
2022/10/23 08:09:30;;;;;;;8.07;4.87;;;12.70;99.90;;;;;;5093623;28;20241;-75
2022/10/23 08:11:58;;;;;;;11.57;5.40;;;12.90;99.90;;;;;;5093847;28;20196;-75
2022/10/23 08:14:25;;;;;;;8.37;5.13;;;13.10;99.90;;;;;;5092933;28;20691;-75
2022/10/23 08:16:52;;;;;;;8.60;4.80;;;13.30;99.90;;;;;;5094138;28;20277;-75
2022/10/23 08:19:18;;;;;;;5.00;4.60;;;13.40;99.90;;;;;;5094094;28;20204;-75
2022/10/23 08:21:45;;;;;;;7.03;4.30;;;13.50;99.90;;;;;;5094049;28;20266;-75
2022/10/23 08:24:12;;;;;;;4.27;3.87;;;13.80;99.90;;;;;;5093936;28;20196;-75
2022/10/23 08:26:39;;;;;;;3.90;3.57;;;14.10;99.90;;;;;;5093766;28;20192;-75
2022/10/23 08:29:07;;;;;;;3.83;3.43;;;14.30;99.90;;;;;;5093749;28;20193;-75
2022/10/23 08:31:34;;;;;;;4.07;3.63;;;14.40;99.90;;;;;;5093687;28;20655;-75
2022/10/23 08:34:00;;;;;;;4.73;3.60;;;14.50;99.90;;;;;;5093926;28;20249;-75
2022/10/23 08:36:28;;;;;;;4.53;4.13;;;14.70;99.90;;;;;;5094051;28;20213;-76
2022/10/23 08:38:57;;;;;;;5.03;3.83;;;14.90;99.90;;;;;;5094251;28;20223;-75
2022/10/23 08:41:27;;;;;;;7.10;3.33;;;15.00;99.90;;;;;;5094042;28;20207;-75
2022/10/23 08:44:00;;;;;;;3.43;3.10;;;15.20;99.90;;;;;;5093906;28;20253;-77
2022/10/23 08:46:33;;;;;;;4.05;3.08;;;15.40;99.90;;;;;;5093743;28;20246;-75
2022/10/23 08:49:10;;;;;;;3.58;3.08;;;15.70;99.90;;;;;;5093342;28;20598;-76
2022/10/23 08:51:42;;;;;;;3.88;2.75;;;16.20;99.90;;;;;;5093405;28;20255;-76
2022/10/23 08:54:14;;;;;;;4.10;3.03;;;16.60;99.90;;;;;;5093247;28;20259;-77
2022/10/23 08:56:44;;;;;;;2.88;2.60;;;16.80;99.90;;;;;;5093437;28;20193;-77
2022/10/23 08:59:19;;;;;;;5.57;2.63;;;16.90;99.90;;;;;;5093642;28;20204;-77
2022/10/23 09:01:52;;;;;;;4.40;2.40;;;17.00;99.90;;;;;;5093265;28;20623;-75
2022/10/23 09:04:19;;;;;;;3.63;2.58;;;17.10;99.90;;;;;;5093228;28;20208;-75
2022/10/23 09:06:56;;;;;;;2.88;2.33;;;17.10;99.90;;;;;;5093280;28;20200;-75
2022/10/23 09:09:46;;;;;;;3.13;2.30;;;17.10;99.90;;;;;;5093317;28;20204;-75
2022/10/23 09:12:17;;;;;;;3.50;2.35;;;17.20;99.90;;;;;;5093575;28;20253;-75
2022/10/23 09:15:02;;;;;;;3.85;2.40;;;17.40;99.90;;;;;;5092941;28;20220;-75
2022/10/23 09:17:31;;;;;;;3.65;2.83;;;17.30;99.90;;;;;;5092991;28;20678;-75
2022/10/23 09:20:10;;;;;;;2.53;2.33;;;17.60;99.90;;;;;;5093153;28;20200;-76
2022/10/23 09:22:37;;;;;;;3.70;2.40;;;17.60;99.90;;;;;;5093203;28;20204;-76
2022/10/23 09:25:09;;;;;;;2.58;2.38;;;17.70;99.90;;;;;;5092769;28;20253;-75
2022/10/23 09:27:35;;;;;;;2.97;2.67;;;17.40;99.90;;;;;;5093323;28;20204;-75
2022/10/23 09:30:02;;;;;;;3.08;2.47;;;18.00;99.90;;;;;;5093193;28;20204;-75
2022/10/23 09:32:35;;;;;;;2.50;2.30;;;18.20;99.90;;;;;;5089957;28;20719;-74
2022/10/23 09:35:03;;;;;;;2.55;2.35;;;18.20;99.90;;;;;;5090481;28;20228;-76
2022/10/23 09:37:33;;;;;;;2.60;2.40;;;18.40;99.90;;;;;;5090409;28;20258;-75
2022/10/23 09:40:14;;;;;;;4.40;2.33;;;18.70;99.90;;;;;;5090313;28;20236;-76
2022/10/23 09:42:52;;;;;;;3.80;2.10;;;18.80;99.90;;;;;;5090121;28;20716;-75
2022/10/23 09:45:24;;;;;;;3.97;2.60;;;18.60;99.90;;;;;;5090377;28;20210;-75
2022/10/23 09:48:11;;;;;;;3.90;2.55;;;18.70;99.90;;;;;;5090090;28;20200;-75
2022/10/23 09:50:47;;;;;;;3.20;2.65;;;18.90;99.90;;;;;;5090462;28;20287;-75
2022/10/23 09:53:17;;;;;;;3.20;2.70;;;18.70;99.90;;;;;;5090073;28;20276;-75
2022/10/23 09:55:50;;;;;;;2.85;2.42;;;18.90;99.90;;;;;;5090014;28;20196;-75
2022/10/23 09:58:29;;;;;;;3.60;3.25;;;19.20;99.90;;;;;;5090149;28;20203;-76
2022/10/23 10:00:56;;;;;;;6.28;3.53;;;19.30;99.90;;;;;;5091426;28;20613;-78
2022/10/23 10:03:25;;;;;;;5.93;2.92;;;19.40;99.90;;;;;;5092804;28;20258;-76
2022/10/23 10:05:57;;;;;;;3.17;2.88;;;19.60;99.90;;;;;;5092636;28;20245;-76
2022/10/23 10:08:40;;;;;;;5.57;2.85;;;20.00;99.90;;;;;;5092564;28;20659;-76
2022/10/23 10:11:14;;;;;;;5.05;2.92;;;20.10;99.90;;;;;;5092689;28;20241;-76
2022/10/23 10:14:04;;;;;;;5.50;3.20;;;20.50;99.90;;;;;;5092495;28;20712;-78
2022/10/23 10:16:44;;;;;;;3.35;2.80;;;21.00;99.90;;;;;;5092556;28;20254;-79
2022/10/23 10:19:23;;;;;;;3.88;2.65;;;21.00;99.90;;;;;;5092632;28;20200;-78
2022/10/23 10:22:00;;;;;;;3.53;2.50;;;21.80;99.90;;;;;;5092741;28;20254;-79
2022/10/23 10:24:34;;;;;;;3.42;2.45;;;22.70;99.90;;;;;;5092723;28;20287;-77
2022/10/23 10:27:09;;;;;;;6.60;2.60;;;23.50;99.90;;;;;;5092605;28;20594;-78
2022/10/23 10:29:53;;;;;;;2.30;2.08;;;24.10;99.90;;;;;;5092509;28;20613;-77
2022/10/23 10:32:33;;;;;;;3.60;2.38;;;23.80;99.90;;;;;;5092985;28;20257;-77
2022/10/23 10:35:18;;;;;;;3.35;2.58;;;24.60;99.90;;;;;;5092541;28;20224;-77
2022/10/23 10:37:59;;;;;;;2.58;2.25;;;25.10;99.90;;;;;;5093868;28;20325;-77
2022/10/23 10:40:31;;;;;;;2.20;2.00;;;25.60;99.90;;;;;;5096059;28;20278;-78
2022/10/23 10:43:23;;;;;;;3.80;2.13;;;26.20;99.90;;;;;;5096258;28;20253;-77
2022/10/23 10:45:57;;;;;;;4.97;2.38;;;27.00;99.90;;;;;;5096047;28;20258;-79
2022/10/23 10:48:41;;;;;;;2.65;1.98;;;27.20;99.90;;;;;;5095993;28;20204;-79
2022/10/23 10:51:18;;;;;;;4.03;2.30;;;28.00;99.90;;;;;;5094853;28;20197;-79
2022/10/23 10:53:55;;;;;;;2.20;1.60;;;27.70;99.90;;;;;;5095917;28;20303;-79
2022/10/23 10:56:24;;;;;;;2.20;2.00;;;27.70;99.50;;;;;;5095941;28;20192;-77
2022/10/23 10:58:54;;;;;;;3.50;2.08;;;27.50;99.20;;;;;;5096838;28;20601;-77
2022/10/23 11:01:26;;;;;;;2.83;2.15;;;27.90;99.10;;;;;;5098102;28;20273;-77
2022/10/23 11:03:57;;;;;;;2.25;2.00;;;28.00;97.60;;;;;;5097258;28;20204;-77
2022/10/23 11:06:29;;;;;;;4.13;2.03;;;28.10;97.60;;;;;;5096966;28;20245;-77
2022/10/23 11:08:59;;;;;;;2.63;1.92;;;29.00;96.50;;;;;;5098947;28;20254;-76
2022/10/23 11:11:32;;;;;;;2.03;1.83;;;28.90;94.80;;;;;;5095404;28;20279;-78
2022/10/23 11:13:58;;;;;;;3.72;2.00;;;29.00;95.00;;;;;;5095470;28;20277;-77
2022/10/23 11:16:28;;;;;;;3.15;1.90;;;29.40;94.00;;;;;;5095531;28;20199;-77
2022/10/23 11:19:04;;;;;;;3.88;1.80;;;28.50;93.20;;;;;;5095596;28;20189;-77
2022/10/23 11:21:38;;;;;;;3.13;1.70;;;26.00;95.20;;;;;;5095228;28;20204;-78
2022/10/23 11:24:50;;;;;;;2.42;1.92;;;25.90;96.40;;;;;;5094911;28;20234;-77
2022/10/23 11:27:34;;;;;;;2.17;1.90;;;25.40;95.70;;;;;;5047139;28;20192;-77
2022/10/23 11:30:16;;;;;;;2.40;1.80;;;25.90;95.90;;;;;;5095506;28;20582;-77
2022/10/23 11:33:10;;;;;;;4.97;1.90;;;25.70;96.40;;;;;;5095175;28;20606;-77
2022/10/23 11:35:48;;;;;;;4.70;2.03;;;25.90;96.30;;;;;;5060721;28;20360;-77
2022/10/23 11:38:18;;;;;;;3.72;2.17;;;26.80;95.90;;;;;;5094832;28;20196;-77
2022/10/23 11:40:47;;;;;;;2.92;2.28;;;27.20;94.40;;;;;;5094597;28;20699;-77
2022/10/23 11:43:25;;;;;;;3.22;2.40;;;27.80;94.00;;;;;;5094993;28;20197;-76
2022/10/23 11:45:52;;;;;;;2.25;2.00;;;27.80;94.10;;;;;;5094875;28;20253;-77
2022/10/23 11:48:23;;;;;;;3.72;1.75;;;27.80;94.20;;;;;;5094707;28;20602;-76
2022/10/23 11:50:53;;;;;;;2.47;1.98;;;28.30;93.40;;;;;;5094626;28;20537;-76
2022/10/23 11:53:28;;;;;;;4.60;2.05;;;29.70;92.90;;;;;;5094581;28;20303;-76
2022/10/23 11:56:05;;;;;;;3.17;1.88;;;30.60;90.60;;;;;;5094730;28;20532;-76
2022/10/23 11:58:44;;;;;;;3.75;2.30;;;30.30;88.20;;;;;;5094570;28;20196;-76
2022/10/23 12:01:28;;;;;;;2.03;1.80;;;29.90;89.50;;;;;;5094398;28;20632;-76
2022/10/23 12:03:59;;;;;;;1.83;1.70;;;29.20;89.10;;;;;;5094447;28;20257;-78
2022/10/23 12:06:29;;;;;;;3.83;1.90;;;29.00;88.80;;;;;;5094602;28;20208;-77
2022/10/23 12:09:02;;;;;;;3.53;1.70;;;28.70;88.70;;;;;;5094274;28;20197;-77
2022/10/23 12:11:41;;;;;;;1.88;1.70;;;27.70;89.70;;;;;;5094347;28;20248;-78
2022/10/23 12:14:26;;;;;;;2.38;1.80;;;26.50;91.30;;;;;;5094150;28;20234;-77
2022/10/23 12:16:53;;;;;;;5.15;2.13;;;25.30;92.40;;;;;;5094300;28;20192;-77
2022/10/23 12:19:23;;;;;;;4.15;2.00;;;24.00;94.00;;;;;;5094173;28;20200;-77
2022/10/23 12:21:51;;;;;;;2.00;1.75;;;23.40;94.50;;;;;;5094046;28;20192;-77
2022/10/23 12:24:46;;;;;;;4.70;2.10;;;23.00;96.20;;;;;;5093945;28;20196;-77
2022/10/23 12:27:20;;;;;;;1.92;1.65;;;23.00;96.60;;;;;;5093973;28;20197;-77
2022/10/23 12:30:01;;;;;;;9.00;2.17;;;22.80;97.00;;;;;;5093942;28;20200;-77
2022/10/23 12:32:42;;;;;;;2.30;2.10;;;23.50;97.10;;;;;;5093993;28;20196;-78
2022/10/23 12:35:47;;;;;;;5.20;2.20;;;23.80;96.60;;;;;;5093933;28;20235;-77
2022/10/23 12:38:17;;;;;;;2.67;1.67;;;24.00;96.80;;;;;;5093669;28;20192;-77
2022/10/23 12:40:50;;;;;;;3.85;1.98;;;24.10;96.30;;;;;;5093419;28;20236;-77
2022/10/23 12:43:27;;;;;;;2.20;2.00;;;24.40;96.40;;;;;;5093521;28;20729;-77
2022/10/23 12:45:56;;;;;;;3.97;2.17;;;23.70;96.80;;;;;;5092547;28;20204;-77
2022/10/23 12:48:24;;;;;;;2.20;2.00;;;22.80;97.60;;;;;;5093490;28;20709;-77
2022/10/23 12:50:53;;;;;;;3.88;2.50;;;22.40;99.10;;;;;;5093528;28;20223;-78
2022/10/23 12:53:23;;;;;;;2.95;2.20;;;22.40;99.90;;;;;;5093532;28;20200;-77
2022/10/23 12:55:55;;;;;;;3.45;2.13;;;22.70;99.50;;;;;;5093630;28;20227;-78
2022/10/23 12:58:24;;;;;;;3.45;2.88;;;22.50;99.40;;;;;;5093911;28;20219;-77